sensor_id;sensor_type;location;lat;lon;timestamp;P1;durP1;ratioP1;P2;durP2;ratioP2
10052;SDS011;52418;53.134;8.236;2022-08-02T00:01:18;0.90;;;0.90;;
10052;SDS011;52418;53.134;8.236;2022-08-02T00:03:43;0.80;;;0.80;;
10052;SDS011;52418;53.134;8.236;2022-08-02T00:06:09;0.90;;;0.90;;
10052;SDS011;52418;53.134;8.236;2022-08-02T00:08:34;0.90;;;0.90;;
10052;SDS011;52418;53.134;8.236;2022-08-02T00:10:59;0.80;;;0.80;;
10052;SDS011;52418;53.134;8.236;2022-08-02T00:13:24;0.90;;;0.90;;
10052;SDS011;52418;53.134;8.236;2022-08-02T00:15:49;0.97;;;0.97;;
10052;SDS011;52418;53.134;8.236;2022-08-02T00:18:14;0.85;;;0.85;;
10052;SDS011;52418;53.134;8.236;2022-08-02T00:20:40;0.80;;;0.80;;
10052;SDS011;52418;53.134;8.236;2022-08-02T00:23:05;0.90;;;0.90;;
10052;SDS011;52418;53.134;8.236;2022-08-02T00:25:30;0.90;;;0.90;;
10052;SDS011;52418;53.134;8.236;2022-08-02T00:27:55;0.90;;;0.90;;
10052;SDS011;52418;53.134;8.236;2022-08-02T00:30:20;0.80;;;0.80;;
10052;SDS011;52418;53.134;8.236;2022-08-02T00:32:45;0.90;;;0.90;;
10052;SDS011;52418;53.134;8.236;2022-08-02T00:35:12;0.90;;;0.90;;
10052;SDS011;52418;53.134;8.236;2022-08-02T00:37:37;0.95;;;0.95;;
10052;SDS011;52418;53.134;8.236;2022-08-02T00:40:03;0.90;;;0.90;;
10052;SDS011;52418;53.134;8.236;2022-08-02T00:42:28;0.90;;;0.90;;
10052;SDS011;52418;53.134;8.236;2022-08-02T00:44:53;0.90;;;0.90;;
10052;SDS011;52418;53.134;8.236;2022-08-02T00:47:18;1.00;;;1.00;;
10052;SDS011;52418;53.134;8.236;2022-08-02T00:49:44;1.00;;;1.00;;
10052;SDS011;52418;53.134;8.236;2022-08-02T00:52:09;0.90;;;0.90;;
10052;SDS011;52418;53.134;8.236;2022-08-02T00:54:34;0.90;;;0.90;;
10052;SDS011;52418;53.134;8.236;2022-08-02T00:56:59;0.80;;;0.80;;
10052;SDS011;52418;53.134;8.236;2022-08-02T00:59:24;0.90;;;0.90;;
10052;SDS011;52418;53.134;8.236;2022-08-02T01:01:49;0.90;;;0.90;;
10052;SDS011;52418;53.134;8.236;2022-08-02T01:04:16;0.90;;;0.90;;
10052;SDS011;52418;53.134;8.236;2022-08-02T01:06:41;0.90;;;0.90;;
10052;SDS011;52418;53.134;8.236;2022-08-02T01:09:06;0.90;;;0.90;;
10052;SDS011;52418;53.134;8.236;2022-08-02T01:11:32;0.90;;;0.90;;
10052;SDS011;52418;53.134;8.236;2022-08-02T01:13:59;0.90;;;0.90;;
10052;SDS011;52418;53.134;8.236;2022-08-02T01:16:25;0.90;;;0.90;;
10052;SDS011;52418;53.134;8.236;2022-08-02T01:18:53;1.00;;;1.00;;
10052;SDS011;52418;53.134;8.236;2022-08-02T01:21:29;1.00;;;1.00;;
10052;SDS011;52418;53.134;8.236;2022-08-02T01:26:42;0.90;;;0.90;;
10052;SDS011;52418;53.134;8.236;2022-08-02T01:29:09;0.90;;;0.90;;
10052;SDS011;52418;53.134;8.236;2022-08-02T01:31:40;0.90;;;0.90;;
10052;SDS011;52418;53.134;8.236;2022-08-02T01:34:17;0.90;;;0.90;;
10052;SDS011;52418;53.134;8.236;2022-08-02T01:36:44;1.00;;;1.00;;
10052;SDS011;52418;53.134;8.236;2022-08-02T01:39:11;0.97;;;0.97;;
10052;SDS011;52418;53.134;8.236;2022-08-02T01:41:38;0.90;;;0.90;;
10052;SDS011;52418;53.134;8.236;2022-08-02T01:44:04;0.80;;;0.80;;
10052;SDS011;52418;53.134;8.236;2022-08-02T01:46:29;0.90;;;0.90;;
10052;SDS011;52418;53.134;8.236;2022-08-02T01:48:55;0.83;;;0.83;;
10052;SDS011;52418;53.134;8.236;2022-08-02T01:51:22;0.90;;;0.90;;
10052;SDS011;52418;53.134;8.236;2022-08-02T01:54:06;0.80;;;0.80;;
10052;SDS011;52418;53.134;8.236;2022-08-02T01:56:33;0.80;;;0.80;;
10052;SDS011;52418;53.134;8.236;2022-08-02T01:58:59;0.90;;;0.90;;
10052;SDS011;52418;53.134;8.236;2022-08-02T02:01:24;1.00;;;1.00;;
10052;SDS011;52418;53.134;8.236;2022-08-02T02:03:50;0.90;;;0.90;;
10052;SDS011;52418;53.134;8.236;2022-08-02T02:06:15;1.00;;;1.00;;
10052;SDS011;52418;53.134;8.236;2022-08-02T02:08:42;0.90;;;0.90;;
10052;SDS011;52418;53.134;8.236;2022-08-02T02:11:07;0.90;;;0.90;;
10052;SDS011;52418;53.134;8.236;2022-08-02T02:13:33;0.90;;;0.90;;
10052;SDS011;52418;53.134;8.236;2022-08-02T02:15:58;0.90;;;0.90;;
10052;SDS011;52418;53.134;8.236;2022-08-02T02:18:26;0.90;;;0.90;;
10052;SDS011;52418;53.134;8.236;2022-08-02T02:20:51;0.90;;;0.90;;
10052;SDS011;52418;53.134;8.236;2022-08-02T02:23:17;1.00;;;1.00;;
10052;SDS011;52418;53.134;8.236;2022-08-02T02:25:42;0.90;;;0.90;;
10052;SDS011;52418;53.134;8.236;2022-08-02T02:30:33;0.90;;;0.90;;
10052;SDS011;52418;53.134;8.236;2022-08-02T02:32:59;0.80;;;0.80;;
10052;SDS011;52418;53.134;8.236;2022-08-02T02:35:26;0.90;;;0.90;;
10052;SDS011;52418;53.134;8.236;2022-08-02T02:37:52;0.87;;;0.87;;
10052;SDS011;52418;53.134;8.236;2022-08-02T02:40:18;0.90;;;0.90;;
10052;SDS011;52418;53.134;8.236;2022-08-02T02:42:44;0.90;;;0.90;;
10052;SDS011;52418;53.134;8.236;2022-08-02T02:45:10;1.00;;;1.00;;
10052;SDS011;52418;53.134;8.236;2022-08-02T02:47:36;0.90;;;0.90;;
10052;SDS011;52418;53.134;8.236;2022-08-02T02:50:02;0.90;;;0.90;;
10052;SDS011;52418;53.134;8.236;2022-08-02T02:52:27;0.90;;;0.90;;
10052;SDS011;52418;53.134;8.236;2022-08-02T02:54:52;0.90;;;0.90;;
10052;SDS011;52418;53.134;8.236;2022-08-02T02:57:18;0.90;;;0.90;;
10052;SDS011;52418;53.134;8.236;2022-08-02T02:59:44;0.90;;;0.90;;
10052;SDS011;52418;53.134;8.236;2022-08-02T03:02:10;0.83;;;0.83;;
10052;SDS011;52418;53.134;8.236;2022-08-02T03:04:35;0.90;;;0.90;;
10052;SDS011;52418;53.134;8.236;2022-08-02T03:07:01;0.80;;;0.80;;
10052;SDS011;52418;53.134;8.236;2022-08-02T03:09:27;0.90;;;0.90;;
10052;SDS011;52418;53.134;8.236;2022-08-02T03:11:52;0.90;;;0.90;;
10052;SDS011;52418;53.134;8.236;2022-08-02T03:14:18;0.90;;;0.90;;
10052;SDS011;52418;53.134;8.236;2022-08-02T03:16:45;0.83;;;0.83;;
10052;SDS011;52418;53.134;8.236;2022-08-02T03:19:11;0.90;;;0.90;;
10052;SDS011;52418;53.134;8.236;2022-08-02T03:21:36;0.90;;;0.90;;
10052;SDS011;52418;53.134;8.236;2022-08-02T03:24:01;0.90;;;0.90;;
10052;SDS011;52418;53.134;8.236;2022-08-02T03:26:26;0.90;;;0.90;;
10052;SDS011;52418;53.134;8.236;2022-08-02T03:28:52;0.90;;;0.90;;
10052;SDS011;52418;53.134;8.236;2022-08-02T03:31:17;0.90;;;0.90;;
10052;SDS011;52418;53.134;8.236;2022-08-02T03:33:42;0.80;;;0.80;;
10052;SDS011;52418;53.134;8.236;2022-08-02T03:36:09;0.90;;;0.90;;
10052;SDS011;52418;53.134;8.236;2022-08-02T03:38:35;0.90;;;0.90;;
10052;SDS011;52418;53.134;8.236;2022-08-02T03:41:01;0.83;;;0.83;;
10052;SDS011;52418;53.134;8.236;2022-08-02T03:43:27;0.90;;;0.90;;
10052;SDS011;52418;53.134;8.236;2022-08-02T03:45:52;0.90;;;0.90;;
10052;SDS011;52418;53.134;8.236;2022-08-02T03:48:18;0.90;;;0.90;;
10052;SDS011;52418;53.134;8.236;2022-08-02T03:50:45;0.90;;;0.90;;
10052;SDS011;52418;53.134;8.236;2022-08-02T03:53:10;0.90;;;0.90;;
10052;SDS011;52418;53.134;8.236;2022-08-02T03:55:36;0.90;;;0.90;;
10052;SDS011;52418;53.134;8.236;2022-08-02T03:58:03;0.90;;;0.90;;
10052;SDS011;52418;53.134;8.236;2022-08-02T04:00:28;0.90;;;0.90;;
10052;SDS011;52418;53.134;8.236;2022-08-02T04:02:53;0.90;;;0.90;;
10052;SDS011;52418;53.134;8.236;2022-08-02T04:05:18;0.90;;;0.90;;
10052;SDS011;52418;53.134;8.236;2022-08-02T04:07:44;0.90;;;0.90;;
10052;SDS011;52418;53.134;8.236;2022-08-02T04:10:09;0.80;;;0.80;;
10052;SDS011;52418;53.134;8.236;2022-08-02T04:12:34;0.90;;;0.90;;
10052;SDS011;52418;53.134;8.236;2022-08-02T04:15:00;0.80;;;0.80;;
10052;SDS011;52418;53.134;8.236;2022-08-02T04:17:25;0.80;;;0.80;;
10052;SDS011;52418;53.134;8.236;2022-08-02T04:19:53;0.80;;;0.80;;
10052;SDS011;52418;53.134;8.236;2022-08-02T04:22:22;0.90;;;0.90;;
10052;SDS011;52418;53.134;8.236;2022-08-02T04:24:49;0.80;;;0.80;;
10052;SDS011;52418;53.134;8.236;2022-08-02T04:27:15;0.83;;;0.83;;
10052;SDS011;52418;53.134;8.236;2022-08-02T04:29:41;0.80;;;0.80;;
10052;SDS011;52418;53.134;8.236;2022-08-02T04:32:06;0.80;;;0.80;;
10052;SDS011;52418;53.134;8.236;2022-08-02T04:34:32;0.80;;;0.80;;
10052;SDS011;52418;53.134;8.236;2022-08-02T04:36:57;0.80;;;0.80;;
10052;SDS011;52418;53.134;8.236;2022-08-02T04:39:23;0.80;;;0.80;;
10052;SDS011;52418;53.134;8.236;2022-08-02T04:41:48;0.80;;;0.80;;
10052;SDS011;52418;53.134;8.236;2022-08-02T04:44:13;0.80;;;0.80;;
10052;SDS011;52418;53.134;8.236;2022-08-02T04:46:39;0.80;;;0.80;;
10052;SDS011;52418;53.134;8.236;2022-08-02T04:49:04;0.80;;;0.80;;
10052;SDS011;52418;53.134;8.236;2022-08-02T04:51:29;0.80;;;0.80;;
10052;SDS011;52418;53.134;8.236;2022-08-02T04:53:55;0.70;;;0.70;;
10052;SDS011;52418;53.134;8.236;2022-08-02T04:56:20;0.90;;;0.90;;
10052;SDS011;52418;53.134;8.236;2022-08-02T04:58:45;0.80;;;0.80;;
10052;SDS011;52418;53.134;8.236;2022-08-02T05:01:10;0.80;;;0.80;;
10052;SDS011;52418;53.134;8.236;2022-08-02T05:03:35;0.80;;;0.80;;
10052;SDS011;52418;53.134;8.236;2022-08-02T05:06:00;0.90;;;0.90;;
10052;SDS011;52418;53.134;8.236;2022-08-02T05:08:26;0.87;;;0.87;;
10052;SDS011;52418;53.134;8.236;2022-08-02T05:10:51;0.80;;;0.80;;
10052;SDS011;52418;53.134;8.236;2022-08-02T05:13:16;0.80;;;0.80;;
10052;SDS011;52418;53.134;8.236;2022-08-02T05:15:41;0.80;;;0.80;;
10052;SDS011;52418;53.134;8.236;2022-08-02T05:18:07;0.90;;;0.90;;
10052;SDS011;52418;53.134;8.236;2022-08-02T05:20:32;0.80;;;0.80;;
10052;SDS011;52418;53.134;8.236;2022-08-02T05:22:57;0.90;;;0.90;;
10052;SDS011;52418;53.134;8.236;2022-08-02T05:25:22;0.90;;;0.90;;
10052;SDS011;52418;53.134;8.236;2022-08-02T05:27:47;0.90;;;0.90;;
10052;SDS011;52418;53.134;8.236;2022-08-02T05:30:12;0.90;;;0.90;;
10052;SDS011;52418;53.134;8.236;2022-08-02T05:32:41;1.00;;;1.00;;
10052;SDS011;52418;53.134;8.236;2022-08-02T05:35:06;1.00;;;1.00;;
10052;SDS011;52418;53.134;8.236;2022-08-02T05:37:32;1.00;;;1.00;;
10052;SDS011;52418;53.134;8.236;2022-08-02T05:39:57;1.00;;;1.00;;
10052;SDS011;52418;53.134;8.236;2022-08-02T05:42:22;1.00;;;1.00;;
10052;SDS011;52418;53.134;8.236;2022-08-02T05:44:47;1.00;;;1.00;;
10052;SDS011;52418;53.134;8.236;2022-08-02T05:47:12;1.00;;;1.00;;
10052;SDS011;52418;53.134;8.236;2022-08-02T05:49:37;1.00;;;1.00;;
10052;SDS011;52418;53.134;8.236;2022-08-02T05:52:05;1.00;;;1.00;;
10052;SDS011;52418;53.134;8.236;2022-08-02T05:54:46;0.90;;;0.90;;
10052;SDS011;52418;53.134;8.236;2022-08-02T05:57:19;1.00;;;1.00;;
10052;SDS011;52418;53.134;8.236;2022-08-02T06:00:21;1.03;;;1.03;;
10052;SDS011;52418;53.134;8.236;2022-08-02T06:02:43;0.90;;;0.90;;
10052;SDS011;52418;53.134;8.236;2022-08-02T06:07:35;1.00;;;1.00;;
10052;SDS011;52418;53.134;8.236;2022-08-02T06:10:00;1.00;;;1.00;;
10052;SDS011;52418;53.134;8.236;2022-08-02T06:12:28;0.93;;;0.93;;
10052;SDS011;52418;53.134;8.236;2022-08-02T06:14:53;1.00;;;1.00;;
10052;SDS011;52418;53.134;8.236;2022-08-02T06:17:18;0.93;;;0.93;;
10052;SDS011;52418;53.134;8.236;2022-08-02T06:19:44;1.00;;;1.00;;
10052;SDS011;52418;53.134;8.236;2022-08-02T06:22:10;0.93;;;0.93;;
10052;SDS011;52418;53.134;8.236;2022-08-02T06:24:45;0.97;;;0.97;;
10052;SDS011;52418;53.134;8.236;2022-08-02T06:27:14;0.93;;;0.93;;
10052;SDS011;52418;53.134;8.236;2022-08-02T06:29:39;1.00;;;1.00;;
10052;SDS011;52418;53.134;8.236;2022-08-02T06:32:05;1.03;;;1.03;;
10052;SDS011;52418;53.134;8.236;2022-08-02T06:34:31;0.90;;;0.90;;
10052;SDS011;52418;53.134;8.236;2022-08-02T06:39:48;1.00;;;1.00;;
10052;SDS011;52418;53.134;8.236;2022-08-02T06:42:15;0.97;;;0.97;;
10052;SDS011;52418;53.134;8.236;2022-08-02T06:44:41;1.07;;;1.07;;
10052;SDS011;52418;53.134;8.236;2022-08-02T06:47:06;1.10;;;1.10;;
10052;SDS011;52418;53.134;8.236;2022-08-02T06:49:31;0.93;;;0.93;;
10052;SDS011;52418;53.134;8.236;2022-08-02T06:51:56;1.10;;;1.10;;
10052;SDS011;52418;53.134;8.236;2022-08-02T06:54:22;1.00;;;1.00;;
10052;SDS011;52418;53.134;8.236;2022-08-02T06:56:47;1.00;;;1.00;;
10052;SDS011;52418;53.134;8.236;2022-08-02T06:59:12;1.10;;;1.10;;
10052;SDS011;52418;53.134;8.236;2022-08-02T07:01:37;1.00;;;1.00;;
10052;SDS011;52418;53.134;8.236;2022-08-02T07:04:03;1.00;;;1.00;;
10052;SDS011;52418;53.134;8.236;2022-08-02T07:06:28;1.10;;;1.10;;
10052;SDS011;52418;53.134;8.236;2022-08-02T07:08:53;1.10;;;1.10;;
10052;SDS011;52418;53.134;8.236;2022-08-02T07:11:18;1.10;;;1.10;;
10052;SDS011;52418;53.134;8.236;2022-08-02T07:13:43;1.07;;;1.07;;
10052;SDS011;52418;53.134;8.236;2022-08-02T07:16:09;0.93;;;0.93;;
10052;SDS011;52418;53.134;8.236;2022-08-02T07:18:34;1.00;;;1.00;;
10052;SDS011;52418;53.134;8.236;2022-08-02T07:21:00;1.00;;;1.00;;
10052;SDS011;52418;53.134;8.236;2022-08-02T07:23:25;1.10;;;1.10;;
10052;SDS011;52418;53.134;8.236;2022-08-02T07:25:50;1.10;;;1.10;;
10052;SDS011;52418;53.134;8.236;2022-08-02T07:28:15;1.00;;;1.00;;
10052;SDS011;52418;53.134;8.236;2022-08-02T07:30:41;1.00;;;1.00;;
10052;SDS011;52418;53.134;8.236;2022-08-02T07:33:06;1.00;;;1.00;;
10052;SDS011;52418;53.134;8.236;2022-08-02T07:35:31;1.00;;;1.00;;
10052;SDS011;52418;53.134;8.236;2022-08-02T07:37:56;1.10;;;1.10;;
10052;SDS011;52418;53.134;8.236;2022-08-02T07:40:22;1.00;;;1.00;;
10052;SDS011;52418;53.134;8.236;2022-08-02T07:42:48;0.90;;;0.90;;
10052;SDS011;52418;53.134;8.236;2022-08-02T07:45:13;0.90;;;0.90;;
10052;SDS011;52418;53.134;8.236;2022-08-02T07:47:39;1.00;;;1.00;;
10052;SDS011;52418;53.134;8.236;2022-08-02T07:50:05;1.00;;;1.00;;
10052;SDS011;52418;53.134;8.236;2022-08-02T07:52:30;1.10;;;1.10;;
10052;SDS011;52418;53.134;8.236;2022-08-02T07:54:55;1.10;;;1.10;;
10052;SDS011;52418;53.134;8.236;2022-08-02T07:57:20;1.10;;;1.10;;
10052;SDS011;52418;53.134;8.236;2022-08-02T07:59:45;1.20;;;1.20;;
10052;SDS011;52418;53.134;8.236;2022-08-02T08:02:12;1.10;;;1.10;;
10052;SDS011;52418;53.134;8.236;2022-08-02T08:04:38;1.10;;;1.10;;
10052;SDS011;52418;53.134;8.236;2022-08-02T08:07:03;1.05;;;1.05;;
10052;SDS011;52418;53.134;8.236;2022-08-02T08:09:30;1.00;;;1.00;;
10052;SDS011;52418;53.134;8.236;2022-08-02T08:11:55;1.17;;;1.17;;
10052;SDS011;52418;53.134;8.236;2022-08-02T08:14:20;1.30;;;1.30;;
10052;SDS011;52418;53.134;8.236;2022-08-02T08:16:45;1.30;;;1.30;;
10052;SDS011;52418;53.134;8.236;2022-08-02T08:19:10;1.20;;;1.20;;
10052;SDS011;52418;53.134;8.236;2022-08-02T08:21:36;1.20;;;1.20;;
10052;SDS011;52418;53.134;8.236;2022-08-02T08:24:01;1.23;;;1.23;;
10052;SDS011;52418;53.134;8.236;2022-08-02T08:26:26;1.20;;;1.20;;
10052;SDS011;52418;53.134;8.236;2022-08-02T08:28:51;1.30;;;1.30;;
10052;SDS011;52418;53.134;8.236;2022-08-02T08:31:16;1.35;;;1.33;;
10052;SDS011;52418;53.134;8.236;2022-08-02T08:33:42;1.20;;;1.20;;
10052;SDS011;52418;53.134;8.236;2022-08-02T08:36:07;1.20;;;1.20;;
10052;SDS011;52418;53.134;8.236;2022-08-02T08:38:33;1.30;;;1.30;;
10052;SDS011;52418;53.134;8.236;2022-08-02T08:40:58;1.30;;;1.30;;
10052;SDS011;52418;53.134;8.236;2022-08-02T08:43:23;1.20;;;1.20;;
10052;SDS011;52418;53.134;8.236;2022-08-02T08:45:48;1.15;;;1.15;;
10052;SDS011;52418;53.134;8.236;2022-08-02T08:48:14;1.13;;;1.13;;
10052;SDS011;52418;53.134;8.236;2022-08-02T08:50:52;1.20;;;1.20;;
10052;SDS011;52418;53.134;8.236;2022-08-02T08:53:19;1.10;;;1.10;;
10052;SDS011;52418;53.134;8.236;2022-08-02T08:55:45;1.10;;;1.10;;
10052;SDS011;52418;53.134;8.236;2022-08-02T08:58:11;1.20;;;1.20;;
10052;SDS011;52418;53.134;8.236;2022-08-02T09:00:36;1.20;;;1.20;;
10052;SDS011;52418;53.134;8.236;2022-08-02T09:03:05;1.20;;;1.20;;
10052;SDS011;52418;53.134;8.236;2022-08-02T09:05:30;1.50;;;1.40;;
10052;SDS011;52418;53.134;8.236;2022-08-02T09:07:57;1.42;;;1.33;;
10052;SDS011;52418;53.134;8.236;2022-08-02T09:13:17;1.30;;;1.30;;
10052;SDS011;52418;53.134;8.236;2022-08-02T09:15:44;1.25;;;1.25;;
10052;SDS011;52418;53.134;8.236;2022-08-02T09:18:10;1.25;;;1.25;;
10052;SDS011;52418;53.134;8.236;2022-08-02T09:20:50;1.20;;;1.20;;
10052;SDS011;52418;53.134;8.236;2022-08-02T09:23:15;1.50;;;1.40;;
10052;SDS011;52418;53.134;8.236;2022-08-02T09:25:42;1.30;;;1.30;;
10052;SDS011;52418;53.134;8.236;2022-08-02T09:28:18;1.10;;;1.10;;
10052;SDS011;52418;53.134;8.236;2022-08-02T09:30:43;1.20;;;1.20;;
10052;SDS011;52418;53.134;8.236;2022-08-02T09:33:09;1.20;;;1.20;;
10052;SDS011;52418;53.134;8.236;2022-08-02T09:35:35;1.23;;;1.23;;
10052;SDS011;52418;53.134;8.236;2022-08-02T09:38:10;1.15;;;1.15;;
10052;SDS011;52418;53.134;8.236;2022-08-02T09:40:36;1.20;;;1.20;;
10052;SDS011;52418;53.134;8.236;2022-08-02T09:43:02;1.20;;;1.20;;
10052;SDS011;52418;53.134;8.236;2022-08-02T09:45:34;1.20;;;1.20;;
10052;SDS011;52418;53.134;8.236;2022-08-02T09:48:00;1.20;;;1.20;;
10052;SDS011;52418;53.134;8.236;2022-08-02T09:50:25;1.10;;;1.10;;
10052;SDS011;52418;53.134;8.236;2022-08-02T09:52:51;1.20;;;1.20;;
10052;SDS011;52418;53.134;8.236;2022-08-02T09:55:18;1.20;;;1.20;;
10052;SDS011;52418;53.134;8.236;2022-08-02T09:57:44;1.10;;;1.10;;
10052;SDS011;52418;53.134;8.236;2022-08-02T10:00:09;1.20;;;1.20;;
10052;SDS011;52418;53.134;8.236;2022-08-02T10:02:35;1.00;;;1.00;;
10052;SDS011;52418;53.134;8.236;2022-08-02T10:05:00;1.10;;;1.10;;
10052;SDS011;52418;53.134;8.236;2022-08-02T10:07:25;1.20;;;1.20;;
10052;SDS011;52418;53.134;8.236;2022-08-02T10:09:51;1.20;;;1.20;;
10052;SDS011;52418;53.134;8.236;2022-08-02T10:12:16;1.20;;;1.20;;
10052;SDS011;52418;53.134;8.236;2022-08-02T10:14:41;1.10;;;1.10;;
10052;SDS011;52418;53.134;8.236;2022-08-02T10:17:07;1.20;;;1.20;;
10052;SDS011;52418;53.134;8.236;2022-08-02T10:19:33;1.30;;;1.30;;
10052;SDS011;52418;53.134;8.236;2022-08-02T10:24:27;1.20;;;1.20;;
10052;SDS011;52418;53.134;8.236;2022-08-02T10:26:53;1.17;;;1.17;;
10052;SDS011;52418;53.134;8.236;2022-08-02T10:29:19;1.20;;;1.20;;
10052;SDS011;52418;53.134;8.236;2022-08-02T10:31:50;1.17;;;1.17;;
10052;SDS011;52418;53.134;8.236;2022-08-02T10:34:17;1.20;;;1.20;;
10052;SDS011;52418;53.134;8.236;2022-08-02T10:36:44;1.30;;;1.30;;
10052;SDS011;52418;53.134;8.236;2022-08-02T10:39:10;1.20;;;1.20;;
10052;SDS011;52418;53.134;8.236;2022-08-02T10:41:53;1.30;;;1.30;;
10052;SDS011;52418;53.134;8.236;2022-08-02T10:44:28;1.30;;;1.30;;
10052;SDS011;52418;53.134;8.236;2022-08-02T10:52:32;1.20;;;1.20;;
10052;SDS011;52418;53.134;8.236;2022-08-02T10:55:02;1.27;;;1.27;;
10052;SDS011;52418;53.134;8.236;2022-08-02T10:57:33;1.48;;;1.38;;
10052;SDS011;52418;53.134;8.236;2022-08-02T11:02:33;1.17;;;1.17;;
10052;SDS011;52418;53.134;8.236;2022-08-02T11:07:40;1.20;;;1.20;;
10052;SDS011;52418;53.134;8.236;2022-08-02T11:10:39;1.30;;;1.30;;
10052;SDS011;52418;53.134;8.236;2022-08-02T11:13:02;1.30;;;1.30;;
10052;SDS011;52418;53.134;8.236;2022-08-02T11:15:27;1.27;;;1.27;;
10052;SDS011;52418;53.134;8.236;2022-08-02T11:17:54;1.10;;;1.10;;
10052;SDS011;52418;53.134;8.236;2022-08-02T11:20:20;1.30;;;1.30;;
10052;SDS011;52418;53.134;8.236;2022-08-02T11:22:45;1.50;;;1.40;;
10052;SDS011;52418;53.134;8.236;2022-08-02T11:27:55;1.30;;;1.30;;
10052;SDS011;52418;53.134;8.236;2022-08-02T11:30:21;1.42;;;1.38;;
10052;SDS011;52418;53.134;8.236;2022-08-02T11:32:46;1.30;;;1.30;;
10052;SDS011;52418;53.134;8.236;2022-08-02T11:35:12;1.30;;;1.30;;
10052;SDS011;52418;53.134;8.236;2022-08-02T11:37:38;1.30;;;1.30;;
10052;SDS011;52418;53.134;8.236;2022-08-02T11:40:04;1.30;;;1.30;;
10052;SDS011;52418;53.134;8.236;2022-08-02T11:42:33;1.20;;;1.20;;
10052;SDS011;52418;53.134;8.236;2022-08-02T11:44:58;1.30;;;1.30;;
10052;SDS011;52418;53.134;8.236;2022-08-02T11:47:23;1.20;;;1.20;;
10052;SDS011;52418;53.134;8.236;2022-08-02T11:49:48;1.20;;;1.20;;
10052;SDS011;52418;53.134;8.236;2022-08-02T11:52:13;1.20;;;1.20;;
10052;SDS011;52418;53.134;8.236;2022-08-02T11:54:39;1.30;;;1.30;;
10052;SDS011;52418;53.134;8.236;2022-08-02T11:57:15;1.20;;;1.20;;
10052;SDS011;52418;53.134;8.236;2022-08-02T11:59:41;1.20;;;1.20;;
10052;SDS011;52418;53.134;8.236;2022-08-02T12:02:07;1.20;;;1.20;;
10052;SDS011;52418;53.134;8.236;2022-08-02T12:04:32;1.20;;;1.20;;
10052;SDS011;52418;53.134;8.236;2022-08-02T12:06:58;1.20;;;1.20;;
10052;SDS011;52418;53.134;8.236;2022-08-02T12:09:24;1.20;;;1.20;;
10052;SDS011;52418;53.134;8.236;2022-08-02T12:11:50;1.20;;;1.20;;
10052;SDS011;52418;53.134;8.236;2022-08-02T12:14:15;1.20;;;1.20;;
10052;SDS011;52418;53.134;8.236;2022-08-02T12:16:40;1.20;;;1.20;;
10052;SDS011;52418;53.134;8.236;2022-08-02T12:19:25;1.30;;;1.30;;
10052;SDS011;52418;53.134;8.236;2022-08-02T12:24:32;1.20;;;1.20;;
10052;SDS011;52418;53.134;8.236;2022-08-02T12:26:57;1.17;;;1.17;;
10052;SDS011;52418;53.134;8.236;2022-08-02T12:29:36;1.17;;;1.17;;
10052;SDS011;52418;53.134;8.236;2022-08-02T12:32:01;1.30;;;1.30;;
10052;SDS011;52418;53.134;8.236;2022-08-02T12:34:27;1.20;;;1.20;;
10052;SDS011;52418;53.134;8.236;2022-08-02T12:37:00;1.20;;;1.20;;
10052;SDS011;52418;53.134;8.236;2022-08-02T12:39:36;1.30;;;1.30;;
10052;SDS011;52418;53.134;8.236;2022-08-02T12:42:02;1.10;;;1.10;;
10052;SDS011;52418;53.134;8.236;2022-08-02T12:44:27;1.23;;;1.23;;
10052;SDS011;52418;53.134;8.236;2022-08-02T12:47:06;1.30;;;1.30;;
10052;SDS011;52418;53.134;8.236;2022-08-02T12:49:31;1.20;;;1.20;;
10052;SDS011;52418;53.134;8.236;2022-08-02T12:51:57;1.30;;;1.30;;
10052;SDS011;52418;53.134;8.236;2022-08-02T12:54:38;1.20;;;1.20;;
10052;SDS011;52418;53.134;8.236;2022-08-02T12:57:13;1.30;;;1.30;;
10052;SDS011;52418;53.134;8.236;2022-08-02T12:59:39;1.50;;;1.40;;
10052;SDS011;52418;53.134;8.236;2022-08-02T13:02:05;1.30;;;1.30;;
10052;SDS011;52418;53.134;8.236;2022-08-02T13:04:31;1.23;;;1.23;;
10052;SDS011;52418;53.134;8.236;2022-08-02T13:06:56;1.20;;;1.20;;
10052;SDS011;52418;53.134;8.236;2022-08-02T13:09:21;1.30;;;1.30;;
10052;SDS011;52418;53.134;8.236;2022-08-02T13:11:46;1.50;;;1.40;;
10052;SDS011;52418;53.134;8.236;2022-08-02T13:14:12;1.23;;;1.23;;
10052;SDS011;52418;53.134;8.236;2022-08-02T13:16:37;1.45;;;1.40;;
10052;SDS011;52418;53.134;8.236;2022-08-02T13:19:02;1.20;;;1.20;;
10052;SDS011;52418;53.134;8.236;2022-08-02T13:21:28;1.30;;;1.30;;
10052;SDS011;52418;53.134;8.236;2022-08-02T13:23:53;1.20;;;1.20;;
10052;SDS011;52418;53.134;8.236;2022-08-02T13:26:18;1.20;;;1.20;;
10052;SDS011;52418;53.134;8.236;2022-08-02T13:28:43;1.23;;;1.23;;
10052;SDS011;52418;53.134;8.236;2022-08-02T13:31:08;1.20;;;1.20;;
10052;SDS011;52418;53.134;8.236;2022-08-02T13:33:33;1.30;;;1.30;;
10052;SDS011;52418;53.134;8.236;2022-08-02T13:35:59;1.20;;;1.20;;
10052;SDS011;52418;53.134;8.236;2022-08-02T13:38:24;1.30;;;1.30;;
10052;SDS011;52418;53.134;8.236;2022-08-02T13:40:49;1.30;;;1.30;;
10052;SDS011;52418;53.134;8.236;2022-08-02T13:43:33;1.30;;;1.30;;
10052;SDS011;52418;53.134;8.236;2022-08-02T13:45:58;1.38;;;1.35;;
10052;SDS011;52418;53.134;8.236;2022-08-02T13:48:23;1.20;;;1.20;;
10052;SDS011;52418;53.134;8.236;2022-08-02T13:50:48;1.20;;;1.20;;
10052;SDS011;52418;53.134;8.236;2022-08-02T13:53:13;1.20;;;1.20;;
10052;SDS011;52418;53.134;8.236;2022-08-02T13:55:38;1.20;;;1.20;;
10052;SDS011;52418;53.134;8.236;2022-08-02T13:58:03;1.10;;;1.10;;
10052;SDS011;52418;53.134;8.236;2022-08-02T14:00:29;1.30;;;1.30;;
10052;SDS011;52418;53.134;8.236;2022-08-02T14:02:55;1.48;;;1.38;;
10052;SDS011;52418;53.134;8.236;2022-08-02T14:05:20;1.30;;;1.30;;
10052;SDS011;52418;53.134;8.236;2022-08-02T14:07:45;1.20;;;1.20;;
10052;SDS011;52418;53.134;8.236;2022-08-02T14:10:10;1.45;;;1.38;;
10052;SDS011;52418;53.134;8.236;2022-08-02T14:12:35;1.37;;;1.33;;
10052;SDS011;52418;53.134;8.236;2022-08-02T14:15:00;1.38;;;1.38;;
10052;SDS011;52418;53.134;8.236;2022-08-02T14:17:26;1.20;;;1.20;;
10052;SDS011;52418;53.134;8.236;2022-08-02T14:19:51;1.27;;;1.27;;
10052;SDS011;52418;53.134;8.236;2022-08-02T14:22:16;1.30;;;1.30;;
10052;SDS011;52418;53.134;8.236;2022-08-02T14:24:41;1.20;;;1.20;;
10052;SDS011;52418;53.134;8.236;2022-08-02T14:27:07;1.20;;;1.20;;
10052;SDS011;52418;53.134;8.236;2022-08-02T14:29:32;1.20;;;1.20;;
10052;SDS011;52418;53.134;8.236;2022-08-02T14:31:57;1.30;;;1.30;;
10052;SDS011;52418;53.134;8.236;2022-08-02T14:34:22;1.20;;;1.20;;
10052;SDS011;52418;53.134;8.236;2022-08-02T14:36:48;1.10;;;1.10;;
10052;SDS011;52418;53.134;8.236;2022-08-02T14:39:13;1.30;;;1.30;;
10052;SDS011;52418;53.134;8.236;2022-08-02T14:41:38;1.30;;;1.30;;
10052;SDS011;52418;53.134;8.236;2022-08-02T14:44:03;1.10;;;1.10;;
10052;SDS011;52418;53.134;8.236;2022-08-02T14:46:31;1.20;;;1.20;;
10052;SDS011;52418;53.134;8.236;2022-08-02T14:48:56;1.15;;;1.15;;
10052;SDS011;52418;53.134;8.236;2022-08-02T14:51:21;1.10;;;1.10;;
10052;SDS011;52418;53.134;8.236;2022-08-02T14:53:47;1.20;;;1.20;;
10052;SDS011;52418;53.134;8.236;2022-08-02T14:56:12;1.15;;;1.15;;
10052;SDS011;52418;53.134;8.236;2022-08-02T14:58:37;1.20;;;1.20;;
10052;SDS011;52418;53.134;8.236;2022-08-02T15:01:02;1.20;;;1.20;;
10052;SDS011;52418;53.134;8.236;2022-08-02T15:03:28;1.20;;;1.20;;
10052;SDS011;52418;53.134;8.236;2022-08-02T15:05:53;1.30;;;1.30;;
10052;SDS011;52418;53.134;8.236;2022-08-02T15:08:18;1.10;;;1.10;;
10052;SDS011;52418;53.134;8.236;2022-08-02T15:10:43;1.30;;;1.30;;
10052;SDS011;52418;53.134;8.236;2022-08-02T15:13:09;1.30;;;1.30;;
10052;SDS011;52418;53.134;8.236;2022-08-02T15:15:34;1.30;;;1.30;;